sensor_id;sensor_type;location;lat;lon;timestamp;P1;durP1;ratioP1;P2;durP2;ratioP2
45344;SDS011;31078;48.304;11.896;2023-07-08T00:00:04;24.55;;;5.45;;
45344;SDS011;31078;48.304;11.896;2023-07-08T00:02:35;22.48;;;5.05;;
45344;SDS011;31078;48.304;11.896;2023-07-08T00:05:04;24.33;;;5.15;;
45344;SDS011;31078;48.304;11.896;2023-07-08T00:07:30;23.95;;;5.38;;
45344;SDS011;31078;48.304;11.896;2023-07-08T00:09:57;26.13;;;5.15;;
45344;SDS011;31078;48.304;11.896;2023-07-08T00:12:23;25.23;;;5.55;;
45344;SDS011;31078;48.304;11.896;2023-07-08T00:14:50;23.00;;;5.13;;
45344;SDS011;31078;48.304;11.896;2023-07-08T00:17:16;23.30;;;5.88;;
45344;SDS011;31078;48.304;11.896;2023-07-08T00:19:43;29.75;;;6.90;;
45344;SDS011;31078;48.304;11.896;2023-07-08T00:22:12;19.33;;;5.32;;
45344;SDS011;31078;48.304;11.896;2023-07-08T00:24:39;19.95;;;4.95;;
45344;SDS011;31078;48.304;11.896;2023-07-08T00:27:08;26.52;;;5.93;;
45344;SDS011;31078;48.304;11.896;2023-07-08T00:29:35;18.95;;;5.43;;
45344;SDS011;31078;48.304;11.896;2023-07-08T00:32:04;28.10;;;6.25;;
45344;SDS011;31078;48.304;11.896;2023-07-08T00:34:35;21.48;;;4.88;;
45344;SDS011;31078;48.304;11.896;2023-07-08T00:37:02;16.55;;;4.88;;
45344;SDS011;31078;48.304;11.896;2023-07-08T00:39:31;18.95;;;5.13;;
45344;SDS011;31078;48.304;11.896;2023-07-08T00:41:58;24.88;;;5.32;;
45344;SDS011;31078;48.304;11.896;2023-07-08T00:44:26;27.98;;;5.45;;
45344;SDS011;31078;48.304;11.896;2023-07-08T00:46:55;20.65;;;5.25;;
45344;SDS011;31078;48.304;11.896;2023-07-08T00:49:29;15.57;;;4.47;;
45344;SDS011;31078;48.304;11.896;2023-07-08T00:52:16;25.30;;;4.95;;
45344;SDS011;31078;48.304;11.896;2023-07-08T00:54:45;21.95;;;4.90;;
45344;SDS011;31078;48.304;11.896;2023-07-08T00:57:11;25.10;;;5.70;;
45344;SDS011;31078;48.304;11.896;2023-07-08T00:59:38;22.45;;;4.78;;
45344;SDS011;31078;48.304;11.896;2023-07-08T01:02:11;23.17;;;5.20;;
45344;SDS011;31078;48.304;11.896;2023-07-08T01:04:42;16.25;;;4.75;;
45344;SDS011;31078;48.304;11.896;2023-07-08T01:07:15;23.25;;;5.43;;
45344;SDS011;31078;48.304;11.896;2023-07-08T01:09:48;27.45;;;5.63;;
45344;SDS011;31078;48.304;11.896;2023-07-08T01:12:18;24.77;;;5.73;;
45344;SDS011;31078;48.304;11.896;2023-07-08T01:14:48;26.58;;;5.85;;
45344;SDS011;31078;48.304;11.896;2023-07-08T01:17:18;21.40;;;5.18;;
45344;SDS011;31078;48.304;11.896;2023-07-08T01:19:45;28.20;;;5.97;;
45344;SDS011;31078;48.304;11.896;2023-07-08T01:22:13;24.25;;;5.82;;
45344;SDS011;31078;48.304;11.896;2023-07-08T01:24:40;9.57;;;4.10;;
45344;SDS011;31078;48.304;11.896;2023-07-08T01:27:10;18.50;;;5.25;;
45344;SDS011;31078;48.304;11.896;2023-07-08T01:29:39;32.03;;;5.88;;
45344;SDS011;31078;48.304;11.896;2023-07-08T01:32:06;25.23;;;5.72;;
45344;SDS011;31078;48.304;11.896;2023-07-08T01:34:33;21.08;;;5.35;;
45344;SDS011;31078;48.304;11.896;2023-07-08T01:37:03;21.42;;;5.60;;
45344;SDS011;31078;48.304;11.896;2023-07-08T01:39:33;22.52;;;5.28;;
45344;SDS011;31078;48.304;11.896;2023-07-08T01:41:59;22.20;;;5.70;;
45344;SDS011;31078;48.304;11.896;2023-07-08T01:44:27;23.67;;;5.57;;
45344;SDS011;31078;48.304;11.896;2023-07-08T01:46:55;29.92;;;6.20;;
45344;SDS011;31078;48.304;11.896;2023-07-08T01:49:24;20.90;;;5.50;;
45344;SDS011;31078;48.304;11.896;2023-07-08T01:51:50;22.27;;;5.75;;
45344;SDS011;31078;48.304;11.896;2023-07-08T01:54:17;21.77;;;5.30;;
45344;SDS011;31078;48.304;11.896;2023-07-08T01:56:45;22.15;;;5.53;;
45344;SDS011;31078;48.304;11.896;2023-07-08T01:59:11;25.75;;;5.60;;
45344;SDS011;31078;48.304;11.896;2023-07-08T02:01:38;32.38;;;6.05;;
45344;SDS011;31078;48.304;11.896;2023-07-08T02:04:04;22.80;;;5.32;;
45344;SDS011;31078;48.304;11.896;2023-07-08T02:06:31;25.10;;;5.25;;
45344;SDS011;31078;48.304;11.896;2023-07-08T02:08:57;32.05;;;5.75;;
45344;SDS011;31078;48.304;11.896;2023-07-08T02:11:24;32.08;;;6.28;;
45344;SDS011;31078;48.304;11.896;2023-07-08T02:13:52;24.80;;;5.40;;
45344;SDS011;31078;48.304;11.896;2023-07-08T02:16:18;29.98;;;6.60;;
45344;SDS011;31078;48.304;11.896;2023-07-08T02:18:45;27.85;;;6.05;;
45344;SDS011;31078;48.304;11.896;2023-07-08T02:21:11;17.67;;;5.50;;
45344;SDS011;31078;48.304;11.896;2023-07-08T02:23:38;31.83;;;6.55;;
45344;SDS011;31078;48.304;11.896;2023-07-08T02:26:05;29.23;;;6.28;;
45344;SDS011;31078;48.304;11.896;2023-07-08T02:28:32;19.55;;;5.07;;
45344;SDS011;31078;48.304;11.896;2023-07-08T02:31:02;29.55;;;5.95;;
45344;SDS011;31078;48.304;11.896;2023-07-08T02:33:29;20.33;;;5.30;;
45344;SDS011;31078;48.304;11.896;2023-07-08T02:35:57;26.52;;;6.00;;
45344;SDS011;31078;48.304;11.896;2023-07-08T02:38:24;31.35;;;6.00;;
45344;SDS011;31078;48.304;11.896;2023-07-08T02:40:51;24.23;;;5.57;;
45344;SDS011;31078;48.304;11.896;2023-07-08T02:43:17;24.42;;;5.50;;
45344;SDS011;31078;48.304;11.896;2023-07-08T02:45:44;16.52;;;5.10;;
45344;SDS011;31078;48.304;11.896;2023-07-08T02:48:11;22.52;;;5.80;;
45344;SDS011;31078;48.304;11.896;2023-07-08T02:50:38;19.23;;;5.05;;
45344;SDS011;31078;48.304;11.896;2023-07-08T02:53:04;29.58;;;6.28;;
45344;SDS011;31078;48.304;11.896;2023-07-08T02:55:31;23.42;;;5.30;;
45344;SDS011;31078;48.304;11.896;2023-07-08T02:57:57;17.27;;;5.38;;
45344;SDS011;31078;48.304;11.896;2023-07-08T03:00:24;25.50;;;5.75;;
45344;SDS011;31078;48.304;11.896;2023-07-08T03:02:50;21.85;;;5.85;;
45344;SDS011;31078;48.304;11.896;2023-07-08T03:05:18;23.85;;;5.93;;
45344;SDS011;31078;48.304;11.896;2023-07-08T03:07:45;22.23;;;5.18;;
45344;SDS011;31078;48.304;11.896;2023-07-08T03:10:11;24.50;;;5.82;;
45344;SDS011;31078;48.304;11.896;2023-07-08T03:12:38;22.75;;;6.00;;
45344;SDS011;31078;48.304;11.896;2023-07-08T03:15:04;23.40;;;5.80;;
45344;SDS011;31078;48.304;11.896;2023-07-08T03:17:32;17.88;;;5.20;;
45344;SDS011;31078;48.304;11.896;2023-07-08T03:19:58;25.17;;;6.50;;
45344;SDS011;31078;48.304;11.896;2023-07-08T03:22:26;16.65;;;4.75;;
45344;SDS011;31078;48.304;11.896;2023-07-08T03:24:52;21.55;;;5.60;;
45344;SDS011;31078;48.304;11.896;2023-07-08T03:27:20;20.38;;;5.45;;
45344;SDS011;31078;48.304;11.896;2023-07-08T03:29:47;23.17;;;6.07;;
45344;SDS011;31078;48.304;11.896;2023-07-08T03:32:13;23.25;;;6.32;;
45344;SDS011;31078;48.304;11.896;2023-07-08T03:34:40;20.55;;;6.13;;
45344;SDS011;31078;48.304;11.896;2023-07-08T03:37:08;18.75;;;5.85;;
45344;SDS011;31078;48.304;11.896;2023-07-08T03:39:37;20.63;;;6.00;;
45344;SDS011;31078;48.304;11.896;2023-07-08T03:42:03;20.02;;;6.22;;
45344;SDS011;31078;48.304;11.896;2023-07-08T03:44:30;19.42;;;5.72;;
45344;SDS011;31078;48.304;11.896;2023-07-08T03:46:57;13.70;;;5.38;;
45344;SDS011;31078;48.304;11.896;2023-07-08T03:49:24;21.40;;;5.57;;
45344;SDS011;31078;48.304;11.896;2023-07-08T03:51:50;20.40;;;6.10;;
45344;SDS011;31078;48.304;11.896;2023-07-08T03:54:20;19.70;;;5.63;;
45344;SDS011;31078;48.304;11.896;2023-07-08T03:56:49;20.38;;;6.07;;
45344;SDS011;31078;48.304;11.896;2023-07-08T03:59:15;23.85;;;6.45;;
45344;SDS011;31078;48.304;11.896;2023-07-08T04:01:42;12.75;;;5.28;;
45344;SDS011;31078;48.304;11.896;2023-07-08T04:04:09;23.05;;;6.28;;
45344;SDS011;31078;48.304;11.896;2023-07-08T04:06:37;22.60;;;6.22;;
45344;SDS011;31078;48.304;11.896;2023-07-08T04:09:04;19.77;;;5.40;;
45344;SDS011;31078;48.304;11.896;2023-07-08T04:11:31;30.45;;;6.82;;
45344;SDS011;31078;48.304;11.896;2023-07-08T04:13:59;22.23;;;5.97;;
45344;SDS011;31078;48.304;11.896;2023-07-08T04:16:27;16.48;;;5.13;;
45344;SDS011;31078;48.304;11.896;2023-07-08T04:18:56;17.55;;;5.47;;
45344;SDS011;31078;48.304;11.896;2023-07-08T04:21:23;25.25;;;6.50;;
45344;SDS011;31078;48.304;11.896;2023-07-08T04:23:51;28.95;;;6.10;;
45344;SDS011;31078;48.304;11.896;2023-07-08T04:26:17;21.15;;;6.38;;
45344;SDS011;31078;48.304;11.896;2023-07-08T04:28:44;22.75;;;6.38;;
45344;SDS011;31078;48.304;11.896;2023-07-08T04:31:12;23.48;;;5.93;;
45344;SDS011;31078;48.304;11.896;2023-07-08T04:33:39;22.65;;;6.10;;
45344;SDS011;31078;48.304;11.896;2023-07-08T04:36:08;23.88;;;5.97;;
45344;SDS011;31078;48.304;11.896;2023-07-08T04:38:38;21.23;;;5.97;;
45344;SDS011;31078;48.304;11.896;2023-07-08T04:41:06;16.67;;;5.45;;
45344;SDS011;31078;48.304;11.896;2023-07-08T04:43:32;21.48;;;5.75;;
45344;SDS011;31078;48.304;11.896;2023-07-08T04:45:59;25.10;;;6.15;;
45344;SDS011;31078;48.304;11.896;2023-07-08T04:48:27;23.30;;;5.95;;
45344;SDS011;31078;48.304;11.896;2023-07-08T04:50:53;17.02;;;5.60;;
45344;SDS011;31078;48.304;11.896;2023-07-08T04:53:20;23.13;;;6.40;;
45344;SDS011;31078;48.304;11.896;2023-07-08T04:55:47;22.60;;;6.38;;
45344;SDS011;31078;48.304;11.896;2023-07-08T04:58:16;33.50;;;7.47;;
45344;SDS011;31078;48.304;11.896;2023-07-08T05:00:42;17.30;;;5.32;;
45344;SDS011;31078;48.304;11.896;2023-07-08T05:03:09;21.58;;;5.93;;
45344;SDS011;31078;48.304;11.896;2023-07-08T05:05:37;23.58;;;5.95;;
45344;SDS011;31078;48.304;11.896;2023-07-08T05:08:03;23.70;;;5.65;;
45344;SDS011;31078;48.304;11.896;2023-07-08T05:10:30;21.85;;;5.57;;
45344;SDS011;31078;48.304;11.896;2023-07-08T05:12:56;25.08;;;6.53;;
45344;SDS011;31078;48.304;11.896;2023-07-08T05:15:23;23.98;;;6.25;;
45344;SDS011;31078;48.304;11.896;2023-07-08T05:17:50;19.77;;;5.95;;
45344;SDS011;31078;48.304;11.896;2023-07-08T05:20:17;21.52;;;6.05;;
45344;SDS011;31078;48.304;11.896;2023-07-08T05:22:45;18.17;;;5.38;;
45344;SDS011;31078;48.304;11.896;2023-07-08T05:25:12;18.35;;;5.72;;
45344;SDS011;31078;48.304;11.896;2023-07-08T05:27:39;22.02;;;6.18;;
45344;SDS011;31078;48.304;11.896;2023-07-08T05:30:06;24.40;;;6.40;;
45344;SDS011;31078;48.304;11.896;2023-07-08T05:32:42;24.15;;;6.18;;
45344;SDS011;31078;48.304;11.896;2023-07-08T05:35:10;28.75;;;7.03;;
45344;SDS011;31078;48.304;11.896;2023-07-08T05:37:36;24.20;;;6.78;;
45344;SDS011;31078;48.304;11.896;2023-07-08T05:40:07;20.33;;;5.80;;
45344;SDS011;31078;48.304;11.896;2023-07-08T05:42:34;18.17;;;5.47;;
45344;SDS011;31078;48.304;11.896;2023-07-08T05:45:01;14.52;;;5.45;;
45344;SDS011;31078;48.304;11.896;2023-07-08T05:47:28;21.23;;;5.88;;
45344;SDS011;31078;48.304;11.896;2023-07-08T05:49:55;17.23;;;5.57;;
45344;SDS011;31078;48.304;11.896;2023-07-08T05:52:21;27.50;;;6.65;;
45344;SDS011;31078;48.304;11.896;2023-07-08T05:54:48;21.52;;;5.63;;
45344;SDS011;31078;48.304;11.896;2023-07-08T05:57:15;18.48;;;5.70;;
45344;SDS011;31078;48.304;11.896;2023-07-08T05:59:42;23.80;;;6.35;;
45344;SDS011;31078;48.304;11.896;2023-07-08T06:02:10;25.30;;;6.95;;
45344;SDS011;31078;48.304;11.896;2023-07-08T06:04:37;23.45;;;6.05;;
45344;SDS011;31078;48.304;11.896;2023-07-08T06:07:04;21.15;;;6.75;;
45344;SDS011;31078;48.304;11.896;2023-07-08T06:09:31;21.73;;;5.80;;
45344;SDS011;31078;48.304;11.896;2023-07-08T06:11:57;30.63;;;7.38;;
45344;SDS011;31078;48.304;11.896;2023-07-08T06:14:26;21.33;;;5.68;;
45344;SDS011;31078;48.304;11.896;2023-07-08T06:16:52;31.27;;;6.93;;
45344;SDS011;31078;48.304;11.896;2023-07-08T06:19:20;30.05;;;6.30;;
45344;SDS011;31078;48.304;11.896;2023-07-08T06:21:46;27.10;;;5.90;;
45344;SDS011;31078;48.304;11.896;2023-07-08T06:24:13;26.15;;;7.00;;
45344;SDS011;31078;48.304;11.896;2023-07-08T06:26:39;27.60;;;7.32;;
45344;SDS011;31078;48.304;11.896;2023-07-08T06:29:06;29.27;;;6.85;;
45344;SDS011;31078;48.304;11.896;2023-07-08T06:31:34;35.35;;;7.55;;
45344;SDS011;31078;48.304;11.896;2023-07-08T06:34:00;40.22;;;6.75;;
45344;SDS011;31078;48.304;11.896;2023-07-08T06:36:27;36.63;;;7.15;;
45344;SDS011;31078;48.304;11.896;2023-07-08T06:38:53;8.68;;;6.00;;
45344;SDS011;31078;48.304;11.896;2023-07-08T06:41:20;9.35;;;6.18;;
45344;SDS011;31078;48.304;11.896;2023-07-08T06:43:46;8.75;;;5.57;;
45344;SDS011;31078;48.304;11.896;2023-07-08T06:46:13;10.25;;;6.22;;
45344;SDS011;31078;48.304;11.896;2023-07-08T06:48:41;7.57;;;5.70;;
45344;SDS011;31078;48.304;11.896;2023-07-08T06:51:07;8.40;;;5.18;;
45344;SDS011;31078;48.304;11.896;2023-07-08T06:53:34;9.23;;;5.38;;
45344;SDS011;31078;48.304;11.896;2023-07-08T06:56:00;7.60;;;4.90;;
45344;SDS011;31078;48.304;11.896;2023-07-08T06:58:27;9.55;;;5.55;;
45344;SDS011;31078;48.304;11.896;2023-07-08T07:00:54;8.63;;;5.22;;
45344;SDS011;31078;48.304;11.896;2023-07-08T07:03:20;8.50;;;5.10;;
45344;SDS011;31078;48.304;11.896;2023-07-08T07:05:48;41.08;;;7.18;;
45344;SDS011;31078;48.304;11.896;2023-07-08T07:08:15;37.65;;;6.82;;
45344;SDS011;31078;48.304;11.896;2023-07-08T07:10:41;35.13;;;7.00;;
45344;SDS011;31078;48.304;11.896;2023-07-08T07:13:08;19.10;;;6.47;;
45344;SDS011;31078;48.304;11.896;2023-07-08T07:15:35;28.15;;;6.45;;
45344;SDS011;31078;48.304;11.896;2023-07-08T07:18:01;18.15;;;7.07;;
45344;SDS011;31078;48.304;11.896;2023-07-08T07:20:28;26.60;;;7.13;;
45344;SDS011;31078;48.304;11.896;2023-07-08T07:22:56;17.02;;;6.03;;
45344;SDS011;31078;48.304;11.896;2023-07-08T07:25:22;27.08;;;7.32;;
45344;SDS011;31078;48.304;11.896;2023-07-08T07:27:49;22.42;;;7.53;;
45344;SDS011;31078;48.304;11.896;2023-07-08T07:30:15;23.50;;;7.63;;
45344;SDS011;31078;48.304;11.896;2023-07-08T07:32:42;25.98;;;6.97;;
45344;SDS011;31078;48.304;11.896;2023-07-08T07:35:09;25.45;;;7.40;;
45344;SDS011;31078;48.304;11.896;2023-07-08T07:37:39;19.42;;;6.72;;
45344;SDS011;31078;48.304;11.896;2023-07-08T07:40:11;27.88;;;7.40;;
45344;SDS011;31078;48.304;11.896;2023-07-08T07:42:40;21.40;;;6.80;;
45344;SDS011;31078;48.304;11.896;2023-07-08T07:45:08;24.65;;;7.70;;
45344;SDS011;31078;48.304;11.896;2023-07-08T07:47:35;29.60;;;7.85;;
45344;SDS011;31078;48.304;11.896;2023-07-08T07:50:02;24.13;;;7.53;;
45344;SDS011;31078;48.304;11.896;2023-07-08T07:52:29;20.27;;;7.38;;
45344;SDS011;31078;48.304;11.896;2023-07-08T07:54:56;32.25;;;7.35;;
45344;SDS011;31078;48.304;11.896;2023-07-08T07:57:24;21.33;;;7.05;;
45344;SDS011;31078;48.304;11.896;2023-07-08T07:59:51;18.60;;;6.35;;
45344;SDS011;31078;48.304;11.896;2023-07-08T08:02:18;34.00;;;8.63;;
45344;SDS011;31078;48.304;11.896;2023-07-08T08:04:44;24.60;;;7.63;;
45344;SDS011;31078;48.304;11.896;2023-07-08T08:07:11;30.83;;;7.32;;
45344;SDS011;31078;48.304;11.896;2023-07-08T08:09:38;29.92;;;7.80;;
45344;SDS011;31078;48.304;11.896;2023-07-08T08:12:06;37.15;;;8.85;;
45344;SDS011;31078;48.304;11.896;2023-07-08T08:14:35;32.22;;;7.88;;
45344;SDS011;31078;48.304;11.896;2023-07-08T08:17:02;37.30;;;8.10;;
45344;SDS011;31078;48.304;11.896;2023-07-08T08:19:29;24.80;;;7.40;;
45344;SDS011;31078;48.304;11.896;2023-07-08T08:21:56;28.20;;;7.75;;
45344;SDS011;31078;48.304;11.896;2023-07-08T08:24:23;29.38;;;7.22;;
45344;SDS011;31078;48.304;11.896;2023-07-08T08:26:49;26.85;;;6.57;;
45344;SDS011;31078;48.304;11.896;2023-07-08T08:29:16;27.00;;;6.47;;
45344;SDS011;31078;48.304;11.896;2023-07-08T08:31:43;41.88;;;10.65;;
45344;SDS011;31078;48.304;11.896;2023-07-08T08:34:10;31.30;;;10.10;;
45344;SDS011;31078;48.304;11.896;2023-07-08T08:36:36;28.05;;;8.48;;
45344;SDS011;31078;48.304;11.896;2023-07-08T08:39:03;36.45;;;9.25;;
45344;SDS011;31078;48.304;11.896;2023-07-08T08:41:30;40.75;;;10.18;;
45344;SDS011;31078;48.304;11.896;2023-07-08T08:43:57;30.02;;;8.43;;
45344;SDS011;31078;48.304;11.896;2023-07-08T08:46:27;36.70;;;8.50;;
45344;SDS011;31078;48.304;11.896;2023-07-08T08:49:05;23.83;;;7.32;;
45344;SDS011;31078;48.304;11.896;2023-07-08T08:51:40;32.17;;;8.30;;
45344;SDS011;31078;48.304;11.896;2023-07-08T08:54:07;27.98;;;7.93;;
45344;SDS011;31078;48.304;11.896;2023-07-08T08:56:34;24.27;;;7.22;;
45344;SDS011;31078;48.304;11.896;2023-07-08T08:59:06;30.38;;;8.25;;
45344;SDS011;31078;48.304;11.896;2023-07-08T09:01:43;25.58;;;7.75;;
45344;SDS011;31078;48.304;11.896;2023-07-08T09:04:15;24.65;;;7.40;;
45344;SDS011;31078;48.304;11.896;2023-07-08T09:06:50;27.02;;;7.70;;
45344;SDS011;31078;48.304;11.896;2023-07-08T09:09:20;18.15;;;6.88;;
45344;SDS011;31078;48.304;11.896;2023-07-08T09:11:57;28.13;;;7.50;;
45344;SDS011;31078;48.304;11.896;2023-07-08T09:14:30;33.42;;;8.52;;
45344;SDS011;31078;48.304;11.896;2023-07-08T09:17:07;33.03;;;8.27;;
45344;SDS011;31078;48.304;11.896;2023-07-08T09:19:44;30.80;;;6.88;;
45344;SDS011;31078;48.304;11.896;2023-07-08T09:22:17;37.80;;;8.18;;
45344;SDS011;31078;48.304;11.896;2023-07-08T09:24:48;30.27;;;7.47;;
45344;SDS011;31078;48.304;11.896;2023-07-08T09:27:17;32.83;;;7.70;;
45344;SDS011;31078;48.304;11.896;2023-07-08T09:29:43;21.60;;;7.00;;
45344;SDS011;31078;48.304;11.896;2023-07-08T09:32:14;36.10;;;7.80;;
45344;SDS011;31078;48.304;11.896;2023-07-08T09:34:45;32.70;;;8.07;;
45344;SDS011;31078;48.304;11.896;2023-07-08T09:37:20;25.92;;;7.25;;
45344;SDS011;31078;48.304;11.896;2023-07-08T09:39:48;29.08;;;7.35;;
45344;SDS011;31078;48.304;11.896;2023-07-08T09:42:15;25.95;;;7.82;;
45344;SDS011;31078;48.304;11.896;2023-07-08T09:44:44;27.02;;;7.57;;
45344;SDS011;31078;48.304;11.896;2023-07-08T09:47:19;29.95;;;8.30;;
45344;SDS011;31078;48.304;11.896;2023-07-08T09:49:49;31.15;;;8.20;;
45344;SDS011;31078;48.304;11.896;2023-07-08T09:52:17;45.58;;;9.13;;
45344;SDS011;31078;48.304;11.896;2023-07-08T09:54:44;21.38;;;6.78;;
45344;SDS011;31078;48.304;11.896;2023-07-08T09:57:12;31.27;;;8.23;;
45344;SDS011;31078;48.304;11.896;2023-07-08T09:59:52;33.25;;;8.93;;
45344;SDS011;31078;48.304;11.896;2023-07-08T10:02:28;22.40;;;7.40;;
45344;SDS011;31078;48.304;11.896;2023-07-08T10:04:59;24.45;;;7.45;;
45344;SDS011;31078;48.304;11.896;2023-07-08T10:07:28;29.65;;;7.97;;
45344;SDS011;31078;48.304;11.896;2023-07-08T10:09:57;34.38;;;8.20;;
45344;SDS011;31078;48.304;11.896;2023-07-08T10:12:30;33.30;;;8.48;;
45344;SDS011;31078;48.304;11.896;2023-07-08T10:14:59;25.75;;;7.72;;
45344;SDS011;31078;48.304;11.896;2023-07-08T10:17:28;25.67;;;7.70;;
45344;SDS011;31078;48.304;11.896;2023-07-08T10:19:55;36.50;;;8.63;;
45344;SDS011;31078;48.304;11.896;2023-07-08T10:22:31;28.67;;;7.25;;
45344;SDS011;31078;48.304;11.896;2023-07-08T10:25:08;32.70;;;8.07;;
45344;SDS011;31078;48.304;11.896;2023-07-08T10:27:45;29.45;;;7.30;;
45344;SDS011;31078;48.304;11.896;2023-07-08T10:30:19;29.05;;;7.78;;
45344;SDS011;31078;48.304;11.896;2023-07-08T10:32:57;30.42;;;7.60;;
45344;SDS011;31078;48.304;11.896;2023-07-08T10:36:02;20.83;;;7.35;;
45344;SDS011;31078;48.304;11.896;2023-07-08T10:38:43;23.98;;;7.88;;
45344;SDS011;31078;48.304;11.896;2023-07-08T10:41:30;47.95;;;9.48;;
45344;SDS011;31078;48.304;11.896;2023-07-08T10:44:07;40.45;;;9.00;;
45344;SDS011;31078;48.304;11.896;2023-07-08T10:46:44;29.83;;;8.30;;
45344;SDS011;31078;48.304;11.896;2023-07-08T10:49:24;33.35;;;7.72;;
45344;SDS011;31078;48.304;11.896;2023-07-08T10:52:05;33.78;;;7.97;;
45344;SDS011;31078;48.304;11.896;2023-07-08T10:54:48;32.63;;;8.02;;
45344;SDS011;31078;48.304;11.896;2023-07-08T10:57:34;32.08;;;7.13;;
45344;SDS011;31078;48.304;11.896;2023-07-08T11:00:18;27.67;;;7.03;;
45344;SDS011;31078;48.304;11.896;2023-07-08T11:02:58;39.70;;;8.57;;
45344;SDS011;31078;48.304;11.896;2023-07-08T11:05:46;30.45;;;7.93;;
45344;SDS011;31078;48.304;11.896;2023-07-08T11:08:21;31.55;;;8.15;;
45344;SDS011;31078;48.304;11.896;2023-07-08T11:10:52;34.22;;;8.25;;
45344;SDS011;31078;48.304;11.896;2023-07-08T11:13:23;34.15;;;8.35;;
45344;SDS011;31078;48.304;11.896;2023-07-08T11:15:54;31.27;;;6.90;;
45344;SDS011;31078;48.304;11.896;2023-07-08T11:18:24;29.13;;;7.53;;
45344;SDS011;31078;48.304;11.896;2023-07-08T11:20:57;34.92;;;7.75;;
45344;SDS011;31078;48.304;11.896;2023-07-08T11:23:31;26.40;;;6.85;;
45344;SDS011;31078;48.304;11.896;2023-07-08T11:26:12;41.15;;;8.23;;
45344;SDS011;31078;48.304;11.896;2023-07-08T11:28:46;29.13;;;6.97;;
45344;SDS011;31078;48.304;11.896;2023-07-08T11:31:15;32.45;;;7.70;;
45344;SDS011;31078;48.304;11.896;2023-07-08T11:33:42;32.15;;;7.85;;
45344;SDS011;31078;48.304;11.896;2023-07-08T11:36:10;31.38;;;8.23;;
45344;SDS011;31078;48.304;11.896;2023-07-08T11:38:45;24.83;;;6.53;;
45344;SDS011;31078;48.304;11.896;2023-07-08T11:41:15;29.40;;;7.93;;
45344;SDS011;31078;48.304;11.896;2023-07-08T11:43:45;31.45;;;7.57;;
45344;SDS011;31078;48.304;11.896;2023-07-08T11:46:15;33.80;;;8.38;;
45344;SDS011;31078;48.304;11.896;2023-07-08T11:48:46;29.30;;;7.45;;
45344;SDS011;31078;48.304;11.896;2023-07-08T11:51:16;16.55;;;6.13;;
45344;SDS011;31078;48.304;11.896;2023-07-08T11:53:49;26.63;;;7.22;;
45344;SDS011;31078;48.304;11.896;2023-07-08T11:56:18;28.30;;;7.40;;
45344;SDS011;31078;48.304;11.896;2023-07-08T12:01:40;28.63;;;7.77;;
45344;SDS011;31078;48.304;11.896;2023-07-08T12:04:20;24.63;;;6.72;;
45344;SDS011;31078;48.304;11.896;2023-07-08T12:06:53;18.15;;;6.72;;
45344;SDS011;31078;48.304;11.896;2023-07-08T12:09:35;15.60;;;6.18;;
45344;SDS011;31078;48.304;11.896;2023-07-08T12:12:05;30.13;;;7.72;;
45344;SDS011;31078;48.304;11.896;2023-07-08T12:14:40;25.17;;;6.63;;
45344;SDS011;31078;48.304;11.896;2023-07-08T12:17:08;29.40;;;7.55;;
45344;SDS011;31078;48.304;11.896;2023-07-08T12:19:37;35.85;;;8.13;;
45344;SDS011;31078;48.304;11.896;2023-07-08T12:22:07;29.13;;;7.78;;
45344;SDS011;31078;48.304;11.896;2023-07-08T12:24:38;30.45;;;7.80;;
45344;SDS011;31078;48.304;11.896;2023-07-08T12:27:05;29.05;;;7.40;;
45344;SDS011;31078;48.304;11.896;2023-07-08T12:29:32;26.15;;;7.50;;
45344;SDS011;31078;48.304;11.896;2023-07-08T12:31:58;30.33;;;7.57;;
45344;SDS011;31078;48.304;11.896;2023-07-08T12:34:25;31.15;;;7.63;;
45344;SDS011;31078;48.304;11.896;2023-07-08T12:36:53;27.58;;;7.78;;
45344;SDS011;31078;48.304;11.896;2023-07-08T12:39:21;31.95;;;7.68;;
45344;SDS011;31078;48.304;11.896;2023-07-08T12:41:48;32.28;;;7.97;;
45344;SDS011;31078;48.304;11.896;2023-07-08T12:44:17;28.70;;;7.60;;
45344;SDS011;31078;48.304;11.896;2023-07-08T12:46:46;27.55;;;6.72;;
45344;SDS011;31078;48.304;11.896;2023-07-08T12:49:14;33.58;;;7.47;;
45344;SDS011;31078;48.304;11.896;2023-07-08T12:51:41;27.52;;;6.80;;
45344;SDS011;31078;48.304;11.896;2023-07-08T12:54:09;22.23;;;6.13;;
45344;SDS011;31078;48.304;11.896;2023-07-08T12:56:36;34.53;;;7.75;;
45344;SDS011;31078;48.304;11.896;2023-07-08T12:59:06;25.38;;;6.85;;
45344;SDS011;31078;48.304;11.896;2023-07-08T13:01:33;38.30;;;8.30;;
45344;SDS011;31078;48.304;11.896;2023-07-08T13:04:04;22.50;;;6.20;;
45344;SDS011;31078;48.304;11.896;2023-07-08T13:06:33;19.00;;;6.25;;
45344;SDS011;31078;48.304;11.896;2023-07-08T13:09:04;21.90;;;6.05;;
45344;SDS011;31078;48.304;11.896;2023-07-08T13:11:34;41.08;;;8.00;;
45344;SDS011;31078;48.304;11.896;2023-07-08T13:14:04;29.90;;;7.13;;
45344;SDS011;31078;48.304;11.896;2023-07-08T13:16:33;29.75;;;7.25;;
45344;SDS011;31078;48.304;11.896;2023-07-08T13:19:01;25.88;;;6.53;;
45344;SDS011;31078;48.304;11.896;2023-07-08T13:21:28;36.42;;;7.43;;
45344;SDS011;31078;48.304;11.896;2023-07-08T13:23:56;30.25;;;6.85;;
45344;SDS011;31078;48.304;11.896;2023-07-08T13:26:24;25.20;;;6.40;;
45344;SDS011;31078;48.304;11.896;2023-07-08T13:28:59;18.83;;;5.90;;
45344;SDS011;31078;48.304;11.896;2023-07-08T13:31:31;51.38;;;8.18;;
45344;SDS011;31078;48.304;11.896;2023-07-08T13:34:05;31.95;;;6.00;;
45344;SDS011;31078;48.304;11.896;2023-07-08T13:36:35;26.15;;;6.00;;
45344;SDS011;31078;48.304;11.896;2023-07-08T13:39:04;24.85;;;6.30;;
45344;SDS011;31078;48.304;11.896;2023-07-08T13:41:32;48.10;;;7.80;;
45344;SDS011;31078;48.304;11.896;2023-07-08T13:44:03;27.58;;;6.75;;
45344;SDS011;31078;48.304;11.896;2023-07-08T13:46:33;25.63;;;5.93;;
45344;SDS011;31078;48.304;11.896;2023-07-08T13:49:01;26.13;;;5.85;;
45344;SDS011;31078;48.304;11.896;2023-07-08T13:51:30;44.70;;;8.50;;
45344;SDS011;31078;48.304;11.896;2023-07-08T13:53:58;25.08;;;6.15;;
45344;SDS011;31078;48.304;11.896;2023-07-08T13:56:28;30.02;;;7.03;;
45344;SDS011;31078;48.304;11.896;2023-07-08T13:59:00;16.35;;;5.40;;
45344;SDS011;31078;48.304;11.896;2023-07-08T14:01:29;50.92;;;8.32;;
45344;SDS011;31078;48.304;11.896;2023-07-08T14:03:58;23.17;;;6.03;;
45344;SDS011;31078;48.304;11.896;2023-07-08T14:06:28;32.30;;;6.72;;
45344;SDS011;31078;48.304;11.896;2023-07-08T14:08:58;35.53;;;7.13;;
45344;SDS011;31078;48.304;11.896;2023-07-08T14:11:34;33.92;;;6.93;;
45344;SDS011;31078;48.304;11.896;2023-07-08T14:14:01;22.98;;;5.78;;
45344;SDS011;31078;48.304;11.896;2023-07-08T14:16:28;22.70;;;6.00;;
45344;SDS011;31078;48.304;11.896;2023-07-08T14:18:56;24.20;;;5.82;;
45344;SDS011;31078;48.304;11.896;2023-07-08T14:21:27;39.70;;;7.65;;
45344;SDS011;31078;48.304;11.896;2023-07-08T14:23:54;18.90;;;5.78;;
45344;SDS011;31078;48.304;11.896;2023-07-08T14:26:20;24.27;;;5.80;;
45344;SDS011;31078;48.304;11.896;2023-07-08T14:28:47;34.30;;;6.57;;
45344;SDS011;31078;48.304;11.896;2023-07-08T14:31:14;23.15;;;5.93;;
45344;SDS011;31078;48.304;11.896;2023-07-08T14:33:43;21.67;;;6.10;;